Time;durP1;ratioP1;P1;durP2;ratioP2;P2;SDS_P1;SDS_P2;PMS_P1;PMS_P2;Temp;Humidity;BMP_temperature;BMP_pressure;BME280_temperature;BME280_humidity;BME280_pressure;Samples;Min_cycle;Max_cycle;Signal;HPM_P1;HPM_P2
2022/07/14 00:01:40;;;;;;;;;;;;;;;;;;4972737;28;19914;-79
2022/07/14 00:04:05;;;;;;;;;;;;;;;;;;4972507;28;20009;-79
2022/07/14 00:06:31;;;;;;;;;;;;;;;;;;4956813;28;19911;-80
2022/07/14 00:08:56;;;;;;;;;;;;;;;;;;4956530;28;19985;-80
2022/07/14 00:11:21;;;;;;;;;;;;;;;;;;4972725;28;19915;-77
2022/07/14 00:13:47;;;;;;;;;;;;;;;;;;4957612;28;19958;-77
2022/07/14 00:16:12;;;;;;;;;;;;;;;;;;4957667;28;20012;-78
2022/07/14 00:18:43;;;;;;;;;;;;;;;;;;4957611;28;19921;-77
2022/07/14 00:21:08;;;;;;;;;;;;;;;;;;4960510;28;19918;-78
2022/07/14 00:23:33;;;;;;;;;;;;;;;;;;4976678;28;19925;-78
2022/07/14 00:25:59;;;;;;;;;;;;;;;;;;4976818;28;19918;-78
2022/07/14 00:28:24;;;;;;;;;;;;;;;;;;4992022;28;19924;-77
2022/07/14 00:30:50;;;;;;;;;;;;;;;;;;4992065;28;19960;-77
2022/07/14 00:33:16;;;;;;;;;;;;;;;;;;4991563;28;19921;-77
2022/07/14 00:35:41;;;;;;;;;;;;;;;;;;4976785;28;20443;-80
2022/07/14 00:38:07;;;;;;;;;;;;;;;;;;4976381;28;19914;-78
2022/07/14 00:40:32;;;;;;;;;;;;;;;;;;4973498;28;19915;-78
2022/07/14 00:42:57;;;;;;;;;;;;;;;;;;4973853;28;19938;-79
2022/07/14 00:45:26;;;;;;;;;;;;;;;;;;4956335;29;19991;-80
2022/07/14 00:47:51;;;;;;;;;;;;;;;;;;4972059;28;19914;-79
2022/07/14 00:50:16;;;;;;;;;;;;;;;;;;4956076;28;20432;-79
2022/07/14 00:52:42;;;;;;;;;;;;;;;;;;4971588;28;19914;-79
2022/07/14 00:55:07;;;;;;;;;;;;;;;;;;4975177;28;19952;-79
2022/07/14 00:57:33;;;;;;;;;;;;;;;;;;4975197;28;19915;-79
2022/07/14 00:59:58;;;;;;;;;;;;;;;;;;4976200;28;19933;-79
2022/07/14 01:02:24;;;;;;;;;;;;;;;;;;4974832;28;19956;-79
2022/07/14 01:04:49;;;;;;;;;;;;;;;;;;4974871;28;20009;-78
2022/07/14 01:07:15;;;;;;;;;;;;;;;;;;4958921;28;20374;-78
2022/07/14 01:09:40;;;;;;;;;;;;;;;;;;4976042;28;20404;-78
2022/07/14 01:12:06;;;;;;;;;;;;;;;;;;4973183;28;20006;-79
2022/07/14 01:14:31;;;;;;;;;;;;;;;;;;4971704;28;20018;-78
2022/07/14 01:16:56;;;;;;;;;;;;;;;;;;4956610;28;19988;-78
2022/07/14 01:19:22;;;;;;;;;;;;;;;;;;4971553;28;19914;-78
2022/07/14 01:21:48;;;;;;;;;;;;;;;;;;4971323;28;19918;-78
2022/07/14 01:24:13;;;;;;;;;;;;;;;;;;4971066;28;19915;-79
2022/07/14 01:26:39;;;;;;;;;;;;;;;;;;4961311;28;19914;-79
2022/07/14 01:29:06;;;;;;;;;;;;;;;;;;4975755;28;20392;-79
2022/07/14 01:31:32;;;;;;;;;;;;;;;;;;4974722;28;19914;-79
2022/07/14 01:33:57;;;;;;;;;;;;;;;;;;4974223;28;20045;-79
2022/07/14 01:36:24;;;;;;;;;;;;;;;;;;4958509;28;19961;-79
2022/07/14 01:38:51;;;;;;;;;;;;;;;;;;4975459;28;19914;-79
2022/07/14 01:41:17;;;;;;;;;;;;;;;;;;4989461;28;19915;-79
2022/07/14 01:43:43;;;;;;;;;;;;;;;;;;4970719;28;19946;-77
2022/07/14 01:46:08;;;;;;;;;;;;;;;;;;4956042;28;20381;-78
2022/07/14 01:48:34;;;;;;;;;;;;;;;;;;4971147;28;19969;-77
2022/07/14 01:50:59;;;;;;;;;;;;;;;;;;4954976;29;19979;-78
2022/07/14 01:53:25;;;;;;;;;;;;;;;;;;4954757;28;19941;-78
2022/07/14 01:55:50;;;;;;;;;;;;;;;;;;4970748;28;20334;-77
2022/07/14 01:58:16;;;;;;;;;;;;;;;;;;4970674;28;19914;-78
2022/07/14 02:00:42;;;;;;;;;;;;;;;;;;4954334;28;19915;-78
2022/07/14 02:03:08;;;;;;;;;;;;;;;;;;4954200;29;20009;-77
2022/07/14 02:05:33;;;;;;;;;;;;;;;;;;4970430;28;20074;-78
2022/07/14 02:07:59;;;;;;;;;;;;;;;;;;4953961;28;19945;-79
2022/07/14 02:13:14;;;;;;;;;;;;;;;;;;4954311;29;19961;-78
2022/07/14 02:15:40;;;;;;;;;;;;;;;;;;4954515;28;19993;-78
2022/07/14 02:18:06;;;;;;;;;;;;;;;;;;4970414;28;19950;-78
2022/07/14 02:20:31;;;;;;;;;;;;;;;;;;4970403;28;20341;-78
2022/07/14 02:22:57;;;;;;;;;;;;;;;;;;4955118;28;20285;-78
2022/07/14 02:25:23;;;;;;;;;;;;;;;;;;4954294;29;19915;-78
2022/07/14 02:27:48;;;;;;;;;;;;;;;;;;4955348;28;20289;-78
2022/07/14 02:30:14;;;;;;;;;;;;;;;;;;4954322;28;19914;-78
2022/07/14 02:32:40;;;;;;;;;;;;;;;;;;4955070;28;19915;-79
2022/07/14 02:35:06;;;;;;;;;;;;;;;;;;4956666;28;19997;-79
2022/07/14 02:37:32;;;;;;;;;;;;;;;;;;4973318;28;19977;-79
2022/07/14 02:39:59;;;;;;;;;;;;;;;;;;4957292;28;20369;-79
2022/07/14 02:42:24;;;;;;;;;;;;;;;;;;4957035;28;20151;-80
2022/07/14 02:44:50;;;;;;;;;;;;;;;;;;4974045;28;20346;-81
2022/07/14 02:47:16;;;;;;;;;;;;;;;;;;4974299;28;19914;-81
2022/07/14 02:49:41;;;;;;;;;;;;;;;;;;4955575;28;19914;-81
2022/07/14 02:52:07;;;;;;;;;;;;;;;;;;4953530;29;19915;-81
2022/07/14 02:54:32;;;;;;;;;;;;;;;;;;4953539;29;19918;-81
2022/07/14 02:56:58;;;;;;;;;;;;;;;;;;4969989;28;19922;-81
2022/07/14 02:59:23;;;;;;;;;;;;;;;;;;4953883;28;19921;-80
2022/07/14 03:01:50;;;;;;;;;;;;;;;;;;4954565;28;19921;-79
2022/07/14 03:04:20;;;;;;;;;;;;;;;;;;4969442;28;19910;-79
2022/07/14 03:06:46;;;;;;;;;;;;;;;;;;4971660;28;20289;-78
2022/07/14 03:09:14;;;;;;;;;;;;;;;;;;4972758;28;20001;-79
2022/07/14 03:11:40;;;;;;;;;;;;;;;;;;4973754;28;20012;-78
2022/07/14 03:14:05;;;;;;;;;;;;;;;;;;4988658;28;19989;-79
2022/07/14 03:16:31;;;;;;;;;;;;;;;;;;4972548;28;20322;-79
2022/07/14 03:19:03;;;;;;;;;;;;;;;;;;4973107;28;19920;-79
2022/07/14 03:21:29;;;;;;;;;;;;;;;;;;4956587;28;19977;-80
2022/07/14 03:23:56;;;;;;;;;;;;;;;;;;4954465;28;19922;-79
2022/07/14 03:26:25;;;;;;;;;;;;;;;;;;4937363;29;19922;-80
2022/07/14 03:28:52;;;;;;;;;;;;;;;;;;4969548;28;19957;-79
2022/07/14 03:31:17;;;;;;;;;;;;;;;;;;4953673;28;19911;-79
2022/07/14 03:33:43;;;;;;;;;;;;;;;;;;4969255;28;20396;-78
2022/07/14 03:36:10;;;;;;;;;;;;;;;;;;4969200;28;19914;-79
2022/07/14 03:38:35;;;;;;;;;;;;;;;;;;4969287;28;19974;-78
2022/07/14 03:41:03;;;;;;;;;;;;;;;;;;4967721;28;19918;-77
2022/07/14 03:43:29;;;;;;;;;;;;;;;;;;4956270;28;20017;-78
2022/07/14 03:45:54;;;;;;;;;;;;;;;;;;5013459;23;19962;-91
2022/07/14 03:48:21;;;;;;;;;;;;;;;;;;5015244;28;20401;-89
2022/07/14 03:50:51;;;;;;;;;;;;;;;;;;5036546;28;19917;-87
2022/07/14 03:53:20;;;;;;;;;;;;;;;;;;4980887;28;19914;-89
2022/07/14 03:56:00;;;;;;;;;;;;;;;;;;5029743;28;19939;-90
2022/07/14 03:58:31;;;;;;;;;;;;;;;;;;5011861;28;19961;-90
2022/07/14 04:00:57;;;;;;;;;;;;;;;;;;5009116;28;19917;-89
2022/07/14 04:03:26;;;;;;;;;;;;;;;;;;5008653;28;19918;-90
2022/07/14 04:05:54;;;;;;;;;;;;;;;;;;4991644;28;19942;-89
2022/07/14 04:08:20;;;;;;;;;;;;;;;;;;5013006;28;19914;-90
2022/07/14 04:10:57;;;;;;;;;;;;;;;;;;5009681;28;19933;-92
2022/07/14 04:13:34;;;;;;;;;;;;;;;;;;5008687;28;19922;-92
2022/07/14 04:16:19;;;;;;;;;;;;;;;;;;5007541;28;19915;-93
2022/07/14 04:19:06;;;;;;;;;;;;;;;;;;4991393;28;19978;-93
2022/07/14 04:21:36;;;;;;;;;;;;;;;;;;5008629;28;19918;-91
2022/07/14 04:24:02;;;;;;;;;;;;;;;;;;4975684;28;19929;-89
2022/07/14 04:26:28;;;;;;;;;;;;;;;;;;4978660;28;20000;-86
2022/07/14 04:28:54;;;;;;;;;;;;;;;;;;4988229;28;19914;-85
2022/07/14 04:31:23;;;;;;;;;;;;;;;;;;5015452;28;20273;-85
2022/07/14 04:33:48;;;;;;;;;;;;;;;;;;4995400;28;19948;-87
2022/07/14 04:36:14;;;;;;;;;;;;;;;;;;5001047;28;19914;-87
2022/07/14 04:38:40;;;;;;;;;;;;;;;;;;4999837;28;19982;-90
2022/07/14 04:41:06;;;;;;;;;;;;;;;;;;4996407;28;19910;-89
2022/07/14 04:43:36;;;;;;;;;;;;;;;;;;5010836;28;20411;-88
2022/07/14 04:46:03;;;;;;;;;;;;;;;;;;5032341;28;19984;-90
2022/07/14 04:52:01;;;;;;;;;;;;;;;;;;5006304;28;19918;-91
2022/07/14 04:54:33;;;;;;;;;;;;;;;;;;4987127;28;19920;-89
2022/07/14 04:57:19;;;;;;;;;;;;;;;;;;4986144;28;19921;-89
2022/07/14 04:59:46;;;;;;;;;;;;;;;;;;5018550;28;19914;-90
2022/07/14 05:02:14;;;;;;;;;;;;;;;;;;5012274;28;19914;-89
2022/07/14 05:04:40;;;;;;;;;;;;;;;;;;4996781;28;19937;-90
2022/07/14 05:07:06;;;;;;;;;;;;;;;;;;5004345;28;19941;-86
2022/07/14 05:09:33;;;;;;;;;;;;;;;;;;5008023;28;20301;-85
2022/07/14 05:12:00;;;;;;;;;;;;;;;;;;4991671;28;19917;-87
2022/07/14 05:14:29;;;;;;;;;;;;;;;;;;4990801;28;19914;-87
2022/07/14 05:16:55;;;;;;;;;;;;;;;;;;4991696;28;20457;-84
2022/07/14 05:19:20;;;;;;;;;;;;;;;;;;4991956;28;20049;-88
2022/07/14 05:21:49;;;;;;;;;;;;;;;;;;4994520;28;19925;-87
2022/07/14 05:24:18;;;;;;;;;;;;;;;;;;5008318;28;19976;-87
2022/07/14 05:26:43;;;;;;;;;;;;;;;;;;5011655;28;19922;-90
2022/07/14 05:29:09;;;;;;;;;;;;;;;;;;4993388;28;19914;-89
2022/07/14 05:31:37;;;;;;;;;;;;;;;;;;4994823;28;20377;-90
2022/07/14 05:34:06;;;;;;;;;;;;;;;;;;4994195;28;20374;-88
2022/07/14 05:36:40;;;;;;;;;;;;;;;;;;5015505;28;19910;-89
2022/07/14 05:39:16;;;;;;;;;;;;;;;;;;5026175;28;19914;-90
2022/07/14 05:42:02;;;;;;;;;;;;;;;;;;4995144;28;19913;-89
2022/07/14 05:44:51;;;;;;;;;;;;;;;;;;5005862;28;19982;-91
2022/07/14 05:47:29;;;;;;;;;;;;;;;;;;;;;
2022/07/14 05:50:00;;;;;;;;;;;;;;;;;;4988671;28;19937;-86
2022/07/14 05:52:30;;;;;;;;;;;;;;;;;;5017280;28;20361;-87
2022/07/14 05:54:55;;;;;;;;;;;;;;;;;;4998261;28;20096;-87
2022/07/14 05:57:24;;;;;;;;;;;;;;;;;;5010001;28;19913;-89
2022/07/14 05:59:51;;;;;;;;;;;;;;;;;;4997917;28;19914;-86
2022/07/14 06:02:20;;;;;;;;;;;;;;;;;;4999127;28;20197;-88
2022/07/14 06:04:49;;;;;;;;;;;;;;;;;;4985138;28;19981;-88
2022/07/14 06:07:15;;;;;;;;;;;;;;;;;;4993333;28;19914;-81
2022/07/14 06:09:47;;;;;;;;;;;;;;;;;;4989419;28;19916;-81
2022/07/14 06:12:13;;;;;;;;;;;;;;;;;;5006050;28;20005;-81
2022/07/14 06:14:41;;;;;;;;;;;;;;;;;;5006204;28;19914;-82
2022/07/14 06:17:07;;;;;;;;;;;;;;;;;;5007545;28;19937;-82
2022/07/14 06:19:33;;;;;;;;;;;;;;;;;;4993907;28;19925;-87
2022/07/14 06:21:58;;;;;;;;;;;;;;;;;;4991173;28;20060;-87
2022/07/14 06:24:24;;;;;;;;;;;;;;;;;;4991167;28;19910;-81
2022/07/14 06:26:50;;;;;;;;;;;;;;;;;;4991420;28;19989;-85
2022/07/14 06:29:15;;;;;;;;;;;;;;;;;;5007095;28;20001;-84
2022/07/14 06:31:42;;;;;;;;;;;;;;;;;;4989916;28;19969;-86
2022/07/14 06:34:11;;;;;;;;;;;;;;;;;;4973608;28;19914;-87
2022/07/14 06:36:51;;;;;;;;;;;;;;;;;;4973730;28;19921;-86
2022/07/14 06:39:16;;;;;;;;;;;;;;;;;;4989341;28;19914;-82
2022/07/14 06:41:42;;;;;;;;;;;;;;;;;;4989417;28;19964;-86
2022/07/14 06:44:10;;;;;;;;;;;;;;;;;;5005249;28;19965;-83
2022/07/14 06:46:38;;;;;;;;;;;;;;;;;;4999775;28;20423;-83
2022/07/14 06:49:04;;;;;;;;;;;;;;;;;;4989621;28;19920;-83
2022/07/14 06:51:30;;;;;;;;;;;;;;;;;;5005752;28;20021;-81
2022/07/14 06:53:56;;;;;;;;;;;;;;;;;;4989864;28;20009;-84
2022/07/14 06:56:21;;;;;;;;;;;;;;;;;;4991208;28;19914;-89
2022/07/14 06:58:46;;;;;;;;;;;;;;;;;;5005479;28;19914;-80
2022/07/14 07:01:12;;;;;;;;;;;;;;;;;;4989247;28;19914;-84
2022/07/14 07:03:37;;;;;;;;;;;;;;;;;;4991247;28;19913;-84
2022/07/14 07:08:47;;;;;;;;;;;;;;;;;;5024891;28;19913;-85
2022/07/14 07:11:13;;;;;;;;;;;;;;;;;;4991829;28;20273;-81
2022/07/14 07:13:38;;;;;;;;;;;;;;;;;;4995191;28;19938;-78
2022/07/14 07:16:03;;;;;;;;;;;;;;;;;;5008963;28;20028;-81
2022/07/14 07:18:29;;;;;;;;;;;;;;;;;;4992861;28;20302;-80
2022/07/14 07:20:54;;;;;;;;;;;;;;;;;;4981112;28;19921;-80
2022/07/14 07:23:20;;;;;;;;;;;;;;;;;;4988326;28;19921;-81
2022/07/14 07:25:45;;;;;;;;;;;;;;;;;;4973374;28;20000;-81
2022/07/14 07:28:11;;;;;;;;;;;;;;;;;;5005516;28;19918;-81
2022/07/14 07:30:36;;;;;;;;;;;;;;;;;;4973943;28;19914;-82
2022/07/14 07:33:02;;;;;;;;;;;;;;;;;;4973760;28;19954;-82
2022/07/14 07:35:27;;;;;;;;;;;;;;;;;;4989755;28;20037;-80
2022/07/14 07:37:52;;;;;;;;;;;;;;;;;;4993942;28;19922;-80
2022/07/14 07:40:18;;;;;;;;;;;;;;;;;;4993742;28;19953;-80
2022/07/14 07:42:43;;;;;;;;;;;;;;;;;;5009423;28;20297;-81
2022/07/14 07:45:09;;;;;;;;;;;;;;;;;;4992765;28;20281;-81
2022/07/14 07:47:34;;;;;;;;;;;;;;;;;;4992873;28;19964;-81
2022/07/14 07:49:59;;;;;;;;;;;;;;;;;;4993879;28;19921;-80
2022/07/14 07:52:25;;;;;;;;;;;;;;;;;;4994163;28;19914;-81
2022/07/14 07:54:50;;;;;;;;;;;;;;;;;;5005468;28;19918;-80
2022/07/14 07:57:15;;;;;;;;;;;;;;;;;;4974029;28;19914;-82
2022/07/14 07:59:41;;;;;;;;;;;;;;;;;;4974900;28;19921;-82
2022/07/14 08:02:06;;;;;;;;;;;;;;;;;;4978279;28;19918;-82
2022/07/14 08:04:32;;;;;;;;;;;;;;;;;;4978924;28;19914;-81
2022/07/14 08:06:57;;;;;;;;;;;;;;;;;;4984419;28;19921;-80
2022/07/14 08:09:23;;;;;;;;;;;;;;;;;;4991244;28;20048;-82
2022/07/14 08:11:48;;;;;;;;;;;;;;;;;;5012755;28;19944;-81
2022/07/14 08:16:58;;;;;;;;;;;;;;;;;;4978455;28;19914;-80
2022/07/14 08:19:23;;;;;;;;;;;;;;;;;;4979738;28;19917;-80
2022/07/14 08:21:48;;;;;;;;;;;;;;;;;;4988173;28;20348;-79
2022/07/14 08:24:14;;;;;;;;;;;;;;;;;;4987678;28;19914;-81
2022/07/14 08:26:40;;;;;;;;;;;;;;;;;;5004482;28;20333;-79
2022/07/14 08:29:05;;;;;;;;;;;;;;;;;;5033889;28;20004;-80
2022/07/14 08:31:31;;;;;;;;;;;;;;;;;;4995509;28;20278;-80
2022/07/14 08:33:56;;;;;;;;;;;;;;;;;;5027936;28;20032;-80
2022/07/14 08:36:21;;;;;;;;;;;;;;;;;;4995943;28;19921;-84
2022/07/14 08:38:47;;;;;;;;;;;;;;;;;;4995915;28;20266;-84
2022/07/14 08:41:12;;;;;;;;;;;;;;;;;;5027881;28;19921;-82
2022/07/14 08:43:37;;;;;;;;;;;;;;;;;;5017788;28;19921;-81
2022/07/14 08:46:03;;;;;;;;;;;;;;;;;;4976700;28;20004;-81
2022/07/14 08:48:29;;;;;;;;;;;;;;;;;;5007865;28;20367;-79
2022/07/14 08:50:57;;;;;;;;;;;;;;;;;;5006585;28;19918;-82
2022/07/14 08:53:22;;;;;;;;;;;;;;;;;;5007251;28;19914;-82
2022/07/14 08:55:48;;;;;;;;;;;;;;;;;;4990774;28;19914;-81
2022/07/14 08:58:13;;;;;;;;;;;;;;;;;;4993070;28;19914;-81
2022/07/14 09:00:39;;;;;;;;;;;;;;;;;;4994448;28;20296;-79
2022/07/14 09:03:05;;;;;;;;;;;;;;;;;;4995050;28;19917;-79
2022/07/14 09:05:30;;;;;;;;;;;;;;;;;;5026726;28;19964;-79
2022/07/14 09:07:56;;;;;;;;;;;;;;;;;;5026724;28;20230;-79
2022/07/14 09:10:21;;;;;;;;;;;;;;;;;;4994562;28;19920;-78
2022/07/14 09:12:47;;;;;;;;;;;;;;;;;;4994982;28;19933;-79
2022/07/14 09:17:56;;;;;;;;;;;;;;;;;;4975333;28;19945;-79
2022/07/14 09:20:22;;;;;;;;;;;;;;;;;;4991330;28;19914;-79
2022/07/14 09:22:47;;;;;;;;;;;;;;;;;;4990459;28;19918;-79
2022/07/14 09:25:12;;;;;;;;;;;;;;;;;;4974334;28;20393;-80
2022/07/14 09:27:38;;;;;;;;;;;;;;;;;;5006839;28;19914;-81
2022/07/14 09:30:03;;;;;;;;;;;;;;;;;;4975739;28;19993;-79
2022/07/14 09:32:29;;;;;;;;;;;;;;;;;;5007888;28;19914;-78
2022/07/14 09:34:54;;;;;;;;;;;;;;;;;;4995142;28;20401;-80
2022/07/14 09:37:21;;;;;;;;;;;;;;;;;;4994756;28;20380;-80
2022/07/14 09:39:47;;;;;;;;;;;;;;;;;;4995201;28;19941;-79
2022/07/14 09:42:12;;;;;;;;;;;;;;;;;;4994700;28;19917;-78
2022/07/14 09:44:39;;;;;;;;;;;;;;;;;;4994296;28;20020;-80
2022/07/14 09:47:04;;;;;;;;;;;;;;;;;;5026021;28;19924;-79
2022/07/14 09:49:31;;;;;;;;;;;;;;;;;;5008963;23;20392;-80
2022/07/14 09:51:57;;;;;;;;;;;;;;;;;;4994125;28;20400;-80
2022/07/14 09:54:22;;;;;;;;;;;;;;;;;;4960841;28;20063;-80
2022/07/14 09:56:50;;;;;;;;;;;;;;;;;;4995057;28;19918;-80
2022/07/14 09:59:15;;;;;;;;;;;;;;;;;;4994121;28;19918;-82
2022/07/14 10:01:41;;;;;;;;;;;;;;;;;;4993210;28;20369;-81
2022/07/14 10:04:06;;;;;;;;;;;;;;;;;;4992739;28;19921;-81
2022/07/14 10:06:32;;;;;;;;;;;;;;;;;;4988815;28;19921;-80
2022/07/14 10:08:57;;;;;;;;;;;;;;;;;;4993572;28;20080;-78
2022/07/14 10:11:23;;;;;;;;;;;;;;;;;;4992892;28;19928;-82
2022/07/14 10:13:48;;;;;;;;;;;;;;;;;;4972736;28;19936;-88
2022/07/14 10:16:14;;;;;;;;;;;;;;;;;;4957859;28;20393;-83
2022/07/14 10:18:39;;;;;;;;;;;;;;;;;;4976141;28;20289;-83
2022/07/14 10:21:05;;;;;;;;;;;;;;;;;;4990270;28;19914;-82
2022/07/14 10:23:39;;;;;;;;;;;;;;;;;;4983811;28;20377;-82
2022/07/14 10:26:16;;;;;;;;;;;;;;;;;;4962267;28;20004;-82
2022/07/14 10:28:42;;;;;;;;;;;;;;;;;;4976131;28;19988;-83
2022/07/14 10:31:07;;;;;;;;;;;;;;;;;;4997790;28;19914;-84
2022/07/14 10:33:33;;;;;;;;;;;;;;;;;;5001705;28;19914;-83
2022/07/14 10:35:58;;;;;;;;;;;;;;;;;;4976762;28;19920;-81
2022/07/14 10:38:23;;;;;;;;;;;;;;;;;;4975116;28;19914;-89
2022/07/14 10:40:49;;;;;;;;;;;;;;;;;;4958712;28;19915;-88
2022/07/14 10:43:14;;;;;;;;;;;;;;;;;;4976293;28;19918;-89
2022/07/14 10:45:40;;;;;;;;;;;;;;;;;;4976124;28;19914;-90
2022/07/14 10:48:05;;;;;;;;;;;;;;;;;;4992589;28;19918;-91
2022/07/14 10:50:30;;;;;;;;;;;;;;;;;;4976505;28;20317;-89
2022/07/14 10:52:56;;;;;;;;;;;;;;;;;;4961459;28;19918;-89
2022/07/14 10:55:22;;;;;;;;;;;;;;;;;;4960711;28;19941;-88
2022/07/14 10:57:47;;;;;;;;;;;;;;;;;;4980547;28;19980;-88
2022/07/14 11:00:12;;;;;;;;;;;;;;;;;;4994283;28;19978;-88
2022/07/14 11:02:41;;;;;;;;;;;;;;;;;;4958101;28;19973;-86
2022/07/14 11:05:08;;;;;;;;;;;;;;;;;;4957285;28;19914;-86
2022/07/14 11:07:33;;;;;;;;;;;;;;;;;;4974421;28;19910;-87
2022/07/14 11:09:59;;;;;;;;;;;;;;;;;;4974118;28;20293;-86
2022/07/14 11:12:24;;;;;;;;;;;;;;;;;;5000796;28;19914;-87
2022/07/14 11:14:50;;;;;;;;;;;;;;;;;;4977209;28;20296;-87
2022/07/14 11:17:15;;;;;;;;;;;;;;;;;;4976658;28;19922;-85
2022/07/14 11:19:51;;;;;;;;;;;;;;;;;;4992592;28;19914;-85
2022/07/14 11:22:17;;;;;;;;;;;;;;;;;;4993443;28;19925;-86
2022/07/14 11:24:43;;;;;;;;;;;;;;;;;;5008468;28;20285;-85
2022/07/14 11:27:08;;;;;;;;;;;;;;;;;;4992841;28;20379;-85
2022/07/14 11:29:34;;;;;;;;;;;;;;;;;;4992977;28;19914;-85
2022/07/14 11:31:59;;;;;;;;;;;;;;;;;;4991982;28;19964;-85
2022/07/14 11:37:09;;;;;;;;;;;;;;;;;;4993039;28;19968;-85
2022/07/14 11:39:35;;;;;;;;;;;;;;;;;;4975057;28;19909;-85
2022/07/14 11:42:06;;;;;;;;;;;;;;;;;;4976148;28;19921;-84
2022/07/14 11:44:31;;;;;;;;;;;;;;;;;;4992382;28;19913;-87
2022/07/14 11:46:58;;;;;;;;;;;;;;;;;;4993456;28;19940;-85
2022/07/14 11:49:33;;;;;;;;;;;;;;;;;;4977852;28;19918;-84
2022/07/14 11:51:58;;;;;;;;;;;;;;;;;;4994617;28;20059;-85
2022/07/14 11:54:24;;;;;;;;;;;;;;;;;;4977996;28;20298;-84
2022/07/14 11:56:49;;;;;;;;;;;;;;;;;;4994383;28;19976;-85
2022/07/14 11:59:18;;;;;;;;;;;;;;;;;;4997088;28;19921;-84
2022/07/14 12:01:46;;;;;;;;;;;;;;;;;;5012137;28;19921;-84
2022/07/14 12:04:14;;;;;;;;;;;;;;;;;;4979851;28;19917;-85
2022/07/14 12:06:43;;;;;;;;;;;;;;;;;;4995371;28;19964;-86
2022/07/14 12:09:09;;;;;;;;;;;;;;;;;;4993648;28;19914;-85
2022/07/14 12:11:34;;;;;;;;;;;;;;;;;;4993360;28;19913;-85
2022/07/14 12:14:03;;;;;;;;;;;;;;;;;;4994380;28;19920;-86
2022/07/14 12:16:31;;;;;;;;;;;;;;;;;;4977200;28;19917;-85
2022/07/14 12:18:57;;;;;;;;;;;;;;;;;;4998510;28;19918;-89
2022/07/14 12:21:22;;;;;;;;;;;;;;;;;;5020695;28;19913;-87
2022/07/14 12:23:48;;;;;;;;;;;;;;;;;;4993739;28;20009;-84
2022/07/14 12:26:13;;;;;;;;;;;;;;;;;;4992361;28;20361;-84
2022/07/14 12:28:39;;;;;;;;;;;;;;;;;;5007227;28;19920;-83
2022/07/14 12:31:04;;;;;;;;;;;;;;;;;;4991707;28;19970;-87
2022/07/14 12:33:35;;;;;;;;;;;;;;;;;;5009310;28;19933;-92
2022/07/14 12:36:09;;;;;;;;;;;;;;;;;;4965496;28;19914;-91
2022/07/14 12:38:36;;;;;;;;;;;;;;;;;;4962860;28;19921;-91
2022/07/14 12:41:02;;;;;;;;;;;;;;;;;;4972137;28;19914;-87
2022/07/14 12:43:27;;;;;;;;;;;;;;;;;;4957812;28;20397;-88
2022/07/14 12:45:56;;;;;;;;;;;;;;;;;;4956573;28;20397;-86
2022/07/14 12:48:21;;;;;;;;;;;;;;;;;;4957717;28;19914;-88
2022/07/14 12:50:47;;;;;;;;;;;;;;;;;;4973924;28;20344;-85
2022/07/14 12:53:12;;;;;;;;;;;;;;;;;;4991736;28;19914;-83
2022/07/14 12:55:38;;;;;;;;;;;;;;;;;;4976566;28;20005;-85
2022/07/14 12:58:04;;;;;;;;;;;;;;;;;;4974856;28;19914;-82
2022/07/14 13:00:29;;;;;;;;;;;;;;;;;;4995204;28;19914;-87
2022/07/14 13:02:57;;;;;;;;;;;;;;;;;;4962081;28;20020;-82
2022/07/14 13:05:23;;;;;;;;;;;;;;;;;;4975720;28;19961;-86
2022/07/14 13:07:48;;;;;;;;;;;;;;;;;;4962802;28;19961;-78
2022/07/14 13:10:14;;;;;;;;;;;;;;;;;;4975358;28;19914;-81
2022/07/14 13:12:40;;;;;;;;;;;;;;;;;;4974588;28;19934;-79
2022/07/14 13:15:06;;;;;;;;;;;;;;;;;;4975056;28;20010;-81
2022/07/14 13:17:31;;;;;;;;;;;;;;;;;;4986204;28;19921;-80
2022/07/14 13:19:57;;;;;;;;;;;;;;;;;;4975386;28;19918;-82
2022/07/14 13:22:22;;;;;;;;;;;;;;;;;;4974280;28;20029;-80
2022/07/14 13:24:48;;;;;;;;;;;;;;;;;;4974097;28;20289;-80
2022/07/14 13:27:13;;;;;;;;;;;;;;;;;;4975395;28;19921;-81
2022/07/14 13:29:38;;;;;;;;;;;;;;;;;;4975464;28;19910;-76
2022/07/14 13:32:04;;;;;;;;;;;;;;;;;;4975605;28;20391;-79
2022/07/14 13:34:29;;;;;;;;;;;;;;;;;;4958281;28;19920;-79
2022/07/14 13:36:55;;;;;;;;;;;;;;;;;;4974057;28;20008;-80
2022/07/14 13:39:20;;;;;;;;;;;;;;;;;;4990381;28;19921;-80
2022/07/14 13:41:46;;;;;;;;;;;;;;;;;;4974099;28;19937;-80
2022/07/14 13:44:11;;;;;;;;;;;;;;;;;;4975399;28;19918;-79
2022/07/14 13:46:36;;;;;;;;;;;;;;;;;;4941948;28;20373;-77
2022/07/14 13:49:02;;;;;;;;;;;;;;;;;;4957804;28;19924;-78
2022/07/14 13:54:12;;;;;;;;;;;;;;;;;;4974784;28;19918;-77
2022/07/14 13:56:41;;;;;;;;;;;;;;;;;;4957561;28;19914;-77
2022/07/14 13:59:09;;;;;;;;;;;;;;;;;;4957892;28;19937;-76
2022/07/14 14:01:34;;;;;;;;;;;;;;;;;;4973585;28;20385;-76
2022/07/14 14:04:00;;;;;;;;;;;;;;;;;;4973602;28;19977;-77
2022/07/14 14:06:25;;;;;;;;;;;;;;;;;;4974497;28;20207;-78
2022/07/14 14:08:51;;;;;;;;;;;;;;;;;;4989746;28;20344;-77
2022/07/14 14:11:16;;;;;;;;;;;;;;;;;;4974403;28;19914;-77
2022/07/14 14:13:42;;;;;;;;;;;;;;;;;;4974219;28;20333;-77
2022/07/14 14:16:08;;;;;;;;;;;;;;;;;;4974510;28;20009;-78
2022/07/14 14:18:33;;;;;;;;;;;;;;;;;;4989865;28;20300;-78
2022/07/14 14:20:58;;;;;;;;;;;;;;;;;;4981451;28;20004;-78
2022/07/14 14:23:24;;;;;;;;;;;;;;;;;;4997815;28;19962;-78
2022/07/14 14:25:49;;;;;;;;;;;;;;;;;;4973957;28;19914;-77
2022/07/14 14:28:14;;;;;;;;;;;;;;;;;;4992357;28;20356;-75
2022/07/14 14:30:40;;;;;;;;;;;;;;;;;;4971919;28;19918;-77
2022/07/14 14:33:05;;;;;;;;;;;;;;;;;;5007390;28;19925;-76
2022/07/14 14:35:31;;;;;;;;;;;;;;;;;;4992095;28;19914;-77
2022/07/14 14:37:56;;;;;;;;;;;;;;;;;;4993449;28;19918;-76
2022/07/14 14:40:21;;;;;;;;;;;;;;;;;;4992360;28;19914;-77
2022/07/14 14:42:47;;;;;;;;;;;;;;;;;;4991607;28;20397;-76
2022/07/14 14:45:12;;;;;;;;;;;;;;;;;;4992148;28;19917;-76
2022/07/14 14:47:38;;;;;;;;;;;;;;;;;;4991924;28;19914;-79
2022/07/14 14:50:03;;;;;;;;;;;;;;;;;;4991456;28;19917;-78
2022/07/14 14:52:29;;;;;;;;;;;;;;;;;;4992087;28;19914;-79
2022/07/14 14:54:54;;;;;;;;;;;;;;;;;;5008037;28;20009;-77
2022/07/14 14:57:26;;;;;;;;;;;;;;;;;;4992078;28;19960;-77
2022/07/14 14:59:55;;;;;;;;;;;;;;;;;;4991516;28;20396;-77
2022/07/14 15:02:22;;;;;;;;;;;;;;;;;;4993131;28;19965;-77
2022/07/14 15:04:47;;;;;;;;;;;;;;;;;;4992728;28;19921;-78
2022/07/14 15:07:12;;;;;;;;;;;;;;;;;;4975864;28;19918;-82
2022/07/14 15:09:38;;;;;;;;;;;;;;;;;;4975630;28;19918;-81
2022/07/14 15:12:03;;;;;;;;;;;;;;;;;;4991783;28;19937;-80
2022/07/14 15:14:29;;;;;;;;;;;;;;;;;;4991514;28;19918;-78
2022/07/14 15:16:56;;;;;;;;;;;;;;;;;;4991719;28;20009;-80
2022/07/14 15:19:26;;;;;;;;;;;;;;;;;;4975356;28;20369;-80
2022/07/14 15:21:51;;;;;;;;;;;;;;;;;;4992312;28;19910;-78
2022/07/14 15:24:16;;;;;;;;;;;;;;;;;;4991492;28;19917;-79
2022/07/14 15:26:42;;;;;;;;;;;;;;;;;;4992002;28;19933;-80
2022/07/14 15:29:07;;;;;;;;;;;;;;;;;;4991628;28;19964;-79
2022/07/14 15:31:33;;;;;;;;;;;;;;;;;;4992780;28;20361;-80
2022/07/14 15:33:58;;;;;;;;;;;;;;;;;;4992807;28;19914;-80
2022/07/14 15:36:24;;;;;;;;;;;;;;;;;;4991550;28;20008;-80
2022/07/14 15:41:33;;;;;;;;;;;;;;;;;;4993421;28;19953;-79
2022/07/14 15:43:59;;;;;;;;;;;;;;;;;;4992617;28;20015;-79
2022/07/14 15:46:27;;;;;;;;;;;;;;;;;;5007774;28;19914;-80
2022/07/14 15:48:52;;;;;;;;;;;;;;;;;;4995490;28;19925;-79
2022/07/14 15:51:18;;;;;;;;;;;;;;;;;;5002508;23;19925;-85
2022/07/14 15:53:43;;;;;;;;;;;;;;;;;;4993674;28;19925;-85
2022/07/14 15:56:09;;;;;;;;;;;;;;;;;;4993573;28;20020;-86
2022/07/14 15:58:34;;;;;;;;;;;;;;;;;;5008541;28;19929;-85
2022/07/14 16:01:03;;;;;;;;;;;;;;;;;;4980873;28;19973;-86
2022/07/14 16:03:28;;;;;;;;;;;;;;;;;;4973932;28;19918;-86
2022/07/14 16:05:54;;;;;;;;;;;;;;;;;;4972975;28;19925;-86
2022/07/14 16:08:19;;;;;;;;;;;;;;;;;;4973567;28;19914;-86
2022/07/14 16:10:44;;;;;;;;;;;;;;;;;;4988205;28;19925;-86
2022/07/14 16:13:10;;;;;;;;;;;;;;;;;;4955764;28;19922;-86
2022/07/14 16:15:35;;;;;;;;;;;;;;;;;;4973596;28;19910;-86
2022/07/14 16:18:04;;;;;;;;;;;;;;;;;;4979710;28;19982;-86
2022/07/14 16:20:29;;;;;;;;;;;;;;;;;;4993847;28;19914;-85
2022/07/14 16:22:54;;;;;;;;;;;;;;;;;;4968767;28;20342;-86
2022/07/14 16:25:20;;;;;;;;;;;;;;;;;;4937165;28;20293;-85
2022/07/14 16:27:46;;;;;;;;;;;;;;;;;;4956287;29;19943;-86
2022/07/14 16:30:11;;;;;;;;;;;;;;;;;;4957817;28;19933;-86
2022/07/14 16:32:36;;;;;;;;;;;;;;;;;;4957770;28;19915;-86
2022/07/14 16:35:02;;;;;;;;;;;;;;;;;;4956076;29;19917;-86
2022/07/14 16:37:27;;;;;;;;;;;;;;;;;;4961228;28;20279;-86
2022/07/14 16:39:53;;;;;;;;;;;;;;;;;;4979185;28;20357;-87
2022/07/14 16:42:18;;;;;;;;;;;;;;;;;;4977172;28;19910;-82
2022/07/14 16:44:43;;;;;;;;;;;;;;;;;;4992043;28;20381;-83
2022/07/14 16:47:09;;;;;;;;;;;;;;;;;;4977636;28;20378;-82
2022/07/14 16:49:34;;;;;;;;;;;;;;;;;;4991888;28;20397;-84
2022/07/14 16:52:00;;;;;;;;;;;;;;;;;;4976629;28;19918;-83
2022/07/14 16:54:25;;;;;;;;;;;;;;;;;;4976371;28;19914;-81
2022/07/14 16:56:51;;;;;;;;;;;;;;;;;;4978041;28;19965;-84
2022/07/14 16:59:16;;;;;;;;;;;;;;;;;;4974924;28;20269;-83
2022/07/14 17:01:42;;;;;;;;;;;;;;;;;;4990724;28;19916;-84
2022/07/14 17:04:08;;;;;;;;;;;;;;;;;;4958582;28;20013;-84